Capitol Logistics 953

Operating for DHL



LMML
Malta International Airport
Malta, MT
EDDK
Cologne Bonn Airport
Cologne, DE

Route Details

Aircraft Information
Group: European Fleet
Types: A30F,A31F,B738
Route Data
Demand: V
Distance: 956nm
Duration: 2h 39m
Recm'd Route: GZO3D GZO M622 ADEXI RONAB MAMAR ABESI N851 ROLSA Z162 ZUE T163 KOVAN T844 ASKIK/N0451F240 T840 GULKO GULK1S
Origin Wx: LMML 272045Z 27008KT 9000 FEW008 20/19 Q1011 NOSIG
Dest. Wx: EDDK 272050Z AUTO 32010KT CAVOK 12/04 Q1023 NOSIG
Notes:

Financial History
Total Freight: 225,997lbs
Average Load: 56,499lbs/flt
Fuel Used: 88,837lbs
Avg. Fuel Used: 22,209lbs/flt
Fuel Expense: $32,277
Avg. Fuel Expense: $8,069
Avg. Fuel Cost: $0.43/lbs
Total Gross Income: $461,260
Pilot Pay: $856
Total Expenses: $65,503
Total Revenue: $361,411
Average Revenue: $115,314.97